createdAt,value
2018-11-01T00:04:34.052Z,11.60
2018-11-01T00:09:52.613Z,11.49
2018-11-01T00:15:12.830Z,11.58
2018-11-01T00:20:32.058Z,11.53
2018-11-01T00:25:50.630Z,11.51
2018-11-01T00:31:09.299Z,11.69
2018-11-01T00:36:28.164Z,11.59
2018-11-01T00:41:46.697Z,11.46
2018-11-01T00:47:05.305Z,11.32
2018-11-01T00:52:24.057Z,11.11
2018-11-01T00:57:42.973Z,10.95
2018-11-01T01:03:01.508Z,11.12
2018-11-01T01:08:20.698Z,10.99
2018-11-01T01:13:39.287Z,10.97
2018-11-01T01:18:57.916Z,10.75
2018-11-01T01:24:16.476Z,10.69
2018-11-01T01:29:35.044Z,10.59
2018-11-01T01:34:54.190Z,10.53
2018-11-01T01:40:13.002Z,10.49
2018-11-01T01:45:31.634Z,10.34
2018-11-01T01:50:50.265Z,10.36
2018-11-01T01:56:08.845Z,10.30
2018-11-01T02:01:27.486Z,10.19
2018-11-01T02:06:46.998Z,10.27
2018-11-01T02:12:05.620Z,10.24
2018-11-01T02:17:24.175Z,10.35
2018-11-01T02:22:43.677Z,10.16
2018-11-01T02:28:07.452Z,10.29
2018-11-01T02:33:26.071Z,10.26
2018-11-01T02:38:44.826Z,10.32
2018-11-01T02:44:04.243Z,10.58
2018-11-01T02:49:22.874Z,10.57
2018-11-01T02:54:41.557Z,10.45
2018-11-01T03:00:00.276Z,10.41
2018-11-01T03:05:19.300Z,10.45
2018-11-01T03:10:38.404Z,10.48
2018-11-01T03:15:58.745Z,10.40
2018-11-01T03:21:17.320Z,10.39
2018-11-01T03:26:36.045Z,10.32
2018-11-01T03:31:54.596Z,10.12
2018-11-01T03:37:13.260Z,9.95
2018-11-01T03:42:31.874Z,9.91
2018-11-01T03:47:50.959Z,9.83
2018-11-01T03:53:09.537Z,9.89
2018-11-01T03:58:28.119Z,9.70
2018-11-01T04:03:46.768Z,9.76
2018-11-01T04:09:09.141Z,9.58
2018-11-01T04:14:27.746Z,9.51
2018-11-01T04:19:46.336Z,9.23
2018-11-01T04:25:05.903Z,9.18
2018-11-01T04:30:26.657Z,9.10
2018-11-01T04:35:45.848Z,8.88
2018-11-01T04:41:04.518Z,8.79
2018-11-01T04:46:24.003Z,8.71
2018-11-01T04:51:42.710Z,8.74
2018-11-01T04:57:01.438Z,8.89
2018-11-01T05:02:20.023Z,9.09
2018-11-01T05:07:38.984Z,9.05
2018-11-01T05:12:57.648Z,8.96
2018-11-01T05:18:16.286Z,8.82
2018-11-01T05:23:34.951Z,8.75
2018-11-01T05:28:53.556Z,8.91
2018-11-01T05:34:12.545Z,8.94
2018-11-01T05:39:33.239Z,8.97
2018-11-01T05:44:52.489Z,8.92
2018-11-01T05:50:12.576Z,8.95
2018-11-01T05:55:31.176Z,8.79
2018-11-01T06:00:50.254Z,8.64
2018-11-01T06:06:09.927Z,8.49
2018-11-01T06:11:29.080Z,8.50
2018-11-01T06:16:47.751Z,8.31
2018-11-01T06:22:06.571Z,8.27
2018-11-01T06:27:25.451Z,8.34
2018-11-01T06:32:45.496Z,8.15
2018-11-01T06:38:04.070Z,8.03
2018-11-01T06:43:23.103Z,7.98
2018-11-01T06:48:42.041Z,7.88
2018-11-01T06:54:00.599Z,7.89
2018-11-01T06:59:19.433Z,8.10
2018-11-01T07:04:38.154Z,8.27
2018-11-01T07:09:57.384Z,8.39
2018-11-01T07:15:16.791Z,8.73
2018-11-01T07:20:35.420Z,8.80
2018-11-01T07:25:54.277Z,8.79
2018-11-01T07:31:12.914Z,8.77
2018-11-01T07:36:31.520Z,8.75
2018-11-01T07:41:50.087Z,8.61
2018-11-01T07:47:09.781Z,8.60
2018-11-01T07:52:28.475Z,8.66
2018-11-01T07:57:47.032Z,8.85
2018-11-01T08:03:05.572Z,8.93
2018-11-01T08:08:24.146Z,9.04
2018-11-01T08:13:42.855Z,9.25
2018-11-01T08:19:03.776Z,9.35
2018-11-01T08:24:22.510Z,9.35
2018-11-01T08:29:41.923Z,9.40
2018-11-01T08:35:00.584Z,9.43
2018-11-01T08:40:19.200Z,9.70
2018-11-01T08:45:37.806Z,9.87
2018-11-01T08:50:56.538Z,9.99
2018-11-01T08:56:15.329Z,9.98
2018-11-01T09:01:34.883Z,10.04
2018-11-01T09:06:54.227Z,10.18
2018-11-01T09:12:13.084Z,10.21
2018-11-01T09:17:32.103Z,10.32
2018-11-01T09:22:52.035Z,10.33
2018-11-01T09:28:11.106Z,10.34
2018-11-01T09:33:29.675Z,10.40
2018-11-01T09:38:48.859Z,10.43
2018-11-01T09:44:08.127Z,10.46
2018-11-01T09:49:27.443Z,10.61
2018-11-01T09:54:46.078Z,10.65
2018-11-01T10:00:06.770Z,10.63
2018-11-01T10:05:25.466Z,10.72
2018-11-01T10:10:44.183Z,10.85
2018-11-01T10:16:03.582Z,11.00
2018-11-01T10:21:22.300Z,11.04
2018-11-01T10:26:40.853Z,11.06
2018-11-01T10:32:00.301Z,11.37
2018-11-01T10:37:19.732Z,11.32
2018-11-01T10:42:39.636Z,11.36
2018-11-01T10:47:58.229Z,11.33
2018-11-01T10:53:16.808Z,11.50
2018-11-01T10:58:35.394Z,11.53
2018-11-01T11:03:53.994Z,11.53
2018-11-01T11:09:12.675Z,11.46
2018-11-01T11:14:32.217Z,11.58
2018-11-01T11:19:51.543Z,11.48
2018-11-01T11:25:11.511Z,11.47
2018-11-01T11:30:30.258Z,11.47
2018-11-01T11:35:48.924Z,11.51
2018-11-01T11:41:07.492Z,11.62
2018-11-01T11:46:27.474Z,11.65
2018-11-01T11:51:46.040Z,11.66
2018-11-01T11:57:06.034Z,11.46
2018-11-01T12:02:24.665Z,11.51
2018-11-01T12:07:43.207Z,11.60
2018-11-01T12:13:01.802Z,11.62
2018-11-01T12:18:20.924Z,11.52
2018-11-01T12:23:39.516Z,11.48
2018-11-01T12:28:59.886Z,11.46
2018-11-01T12:34:18.682Z,11.52
2018-11-01T12:39:37.460Z,11.50
2018-11-01T12:44:56.080Z,11.47
2018-11-01T12:50:15.038Z,11.50
2018-11-01T12:55:33.548Z,11.51
2018-11-01T13:00:52.138Z,11.37
2018-11-01T13:06:10.915Z,11.32
2018-11-01T13:11:30.348Z,11.20
2018-11-01T13:16:51.409Z,11.18
2018-11-01T13:22:13.285Z,11.20
2018-11-01T13:27:32.214Z,11.05
2018-11-01T13:32:51.558Z,10.99
2018-11-01T13:38:10.210Z,10.88
2018-11-01T13:43:29.288Z,10.88
2018-11-01T13:48:47.902Z,10.84
2018-11-01T13:54:06.719Z,10.85
2018-11-01T13:59:25.840Z,10.61
2018-11-01T14:04:44.528Z,10.41
2018-11-01T14:10:03.351Z,10.32
2018-11-01T14:15:22.258Z,10.20
2018-11-01T14:20:40.764Z,10.04
2018-11-01T14:25:59.308Z,9.80
2018-11-01T14:31:18.038Z,9.69
2018-11-01T14:36:37.518Z,9.72
2018-11-01T14:41:56.856Z,9.63
2018-11-01T14:47:16.728Z,9.58
2018-11-01T14:52:35.877Z,9.63
2018-11-01T14:57:55.227Z,9.55
2018-11-01T15:03:22.397Z,9.41
2018-11-01T15:08:40.920Z,9.35
2018-11-01T15:13:59.491Z,9.34
2018-11-01T15:19:18.093Z,9.39
2018-11-01T15:24:41.910Z,9.25
2018-11-01T15:30:00.720Z,9.25
2018-11-01T15:35:24.066Z,9.24
2018-11-01T15:40:42.823Z,9.13
2018-11-01T15:46:02.614Z,9.13
2018-11-01T15:51:21.170Z,8.96
2018-11-01T15:56:39.988Z,9.00
2018-11-01T16:02:02.839Z,8.93
2018-11-01T16:07:21.597Z,8.97
2018-11-01T16:12:40.459Z,9.09
2018-11-01T16:18:00.057Z,9.10
2018-11-01T16:23:18.613Z,9.13
2018-11-01T16:28:37.135Z,8.98
2018-11-01T16:33:55.715Z,9.05
2018-11-01T16:39:14.290Z,8.99
2018-11-01T16:44:32.824Z,8.97
2018-11-01T16:49:51.408Z,9.04
2018-11-01T16:55:10.280Z,9.07
2018-11-01T17:00:28.938Z,8.99
2018-11-01T17:05:47.372Z,9.03
2018-11-01T17:11:05.933Z,9.03
2018-11-01T17:16:24.603Z,8.99
2018-11-01T17:21:43.197Z,9.00
2018-11-01T17:27:06.071Z,8.95
2018-11-01T17:32:30.564Z,9.24
2018-11-01T17:37:49.137Z,9.18
2018-11-01T17:43:07.805Z,8.96
2018-11-01T17:48:26.294Z,8.88
2018-11-01T17:53:44.979Z,8.87
2018-11-01T17:59:03.711Z,8.94
2018-11-01T18:04:22.335Z,8.94
2018-11-01T18:09:41.058Z,8.87
2018-11-01T18:14:59.721Z,8.81
2018-11-01T18:20:18.650Z,8.78
2018-11-01T18:25:42.477Z,8.87
2018-11-01T18:31:01.227Z,8.87
2018-11-01T18:36:19.742Z,8.74
2018-11-01T18:41:38.283Z,8.71
2018-11-01T18:46:56.863Z,8.84
2018-11-01T18:52:15.386Z,8.88
2018-11-01T18:57:34.012Z,8.87
2018-11-01T19:02:52.548Z,8.80
2018-11-01T19:08:11.113Z,8.75
2018-11-01T19:13:29.684Z,8.72
2018-11-01T19:18:48.170Z,8.71
2018-11-01T19:24:06.801Z,8.68
2018-11-01T19:29:25.604Z,8.68
2018-11-01T19:34:44.218Z,8.62
2018-11-01T19:40:02.727Z,8.69
2018-11-01T19:45:21.215Z,8.65
2018-11-01T19:50:40.499Z,8.84
2018-11-01T19:55:59.384Z,8.86
2018-11-01T20:01:18.023Z,8.96
2018-11-01T20:06:37.030Z,8.96
2018-11-01T20:11:56.216Z,9.07
2018-11-01T20:17:14.729Z,9.16
2018-11-01T20:22:33.286Z,9.16
2018-11-01T20:27:52.934Z,9.12
2018-11-01T20:33:14.036Z,9.16
2018-11-01T20:38:32.802Z,9.26
2018-11-01T20:43:51.303Z,9.30
2018-11-01T20:49:11.017Z,9.30
2018-11-01T20:54:29.567Z,9.26
2018-11-01T20:59:48.955Z,9.23
2018-11-01T21:05:07.971Z,9.33
2018-11-01T21:10:26.527Z,9.34
2018-11-01T21:15:45.533Z,9.44
2018-11-01T21:21:04.122Z,9.42
2018-11-01T21:26:22.749Z,9.41
2018-11-01T21:31:41.725Z,9.49
2018-11-01T21:37:00.744Z,9.48
2018-11-01T21:42:19.388Z,9.46
2018-11-01T21:47:37.933Z,9.39
2018-11-01T21:52:57.113Z,9.51
2018-11-01T21:58:15.623Z,9.57
2018-11-01T22:03:34.352Z,9.50
2018-11-01T22:08:53.087Z,9.67
2018-11-01T22:14:11.631Z,9.77
2018-11-01T22:19:30.185Z,9.71
2018-11-01T22:24:48.742Z,9.79
2018-11-01T22:30:09.203Z,9.83
2018-11-01T22:35:28.078Z,9.90
2018-11-01T22:40:46.951Z,9.90
2018-11-01T22:46:05.697Z,9.92
2018-11-01T22:51:24.191Z,10.00
2018-11-01T22:56:42.693Z,9.91
2018-11-01T23:02:01.308Z,9.85
2018-11-01T23:07:19.809Z,9.78
2018-11-01T23:12:38.510Z,9.90
2018-11-01T23:17:57.015Z,9.93
2018-11-01T23:23:16.176Z,9.89
2018-11-01T23:28:34.719Z,9.87
2018-11-01T23:33:53.281Z,9.94
2018-11-01T23:39:17.172Z,9.86
2018-11-01T23:44:40.877Z,9.98
2018-11-01T23:50:08.463Z,9.98
2018-11-01T23:55:26.918Z,9.94
